ΕΜΥ, Εθνική Μετεωρολογική Υπηρεσία - Δελτία Καιρού, Προγνώσεις

ΑΕΡΟΝΑΥΤΙΛΙΑ

GREEK AIRPORTS CODES

LGST 141500Z 32006KT 9999 FEW020TCU SCT025 19/15 Q1013=

EUROPEAN AIRPORTS CODES

LFPO 141530Z 12006KT 080V170 9999 FEW019 BKN023 BKN190 06/03Q0998 NOSIG=